createdAt,value
2018-06-10T00:01:25.855Z,19.7
2018-06-10T00:11:27.125Z,18.0
2018-06-10T00:21:26.338Z,22.0
2018-06-10T00:31:26.077Z,22.7
2018-06-10T00:41:25.918Z,19.4
2018-06-10T00:51:25.764Z,21.5
2018-06-10T01:01:26.060Z,23.2
2018-06-10T01:11:26.947Z,26.9
2018-06-10T01:21:26.380Z,19.3
2018-06-10T01:31:26.757Z,22.0
2018-06-10T01:41:25.740Z,21.8
2018-06-10T01:51:26.963Z,25.5
2018-06-10T02:01:26.892Z,22.1
2018-06-10T02:11:25.676Z,20.6
2018-06-10T02:21:25.642Z,24.6
2018-06-10T02:31:26.796Z,21.9
2018-06-10T02:41:25.833Z,25.5
2018-06-10T02:51:27.704Z,23.8
2018-06-10T03:01:26.400Z,25.2
2018-06-10T03:11:26.533Z,26.0
2018-06-10T03:21:25.600Z,26.2
2018-06-10T03:31:27.603Z,24.8
2018-06-10T03:41:27.475Z,24.9
2018-06-10T03:51:27.087Z,29.1
2018-06-10T04:01:26.413Z,27.6
2018-06-10T04:11:26.203Z,25.5
2018-06-10T04:21:26.095Z,29.4
2018-06-10T04:31:26.354Z,30.0
2018-06-10T04:41:26.452Z,30.3
2018-06-10T04:51:25.734Z,28.1
2018-06-10T05:01:27.180Z,25.6
2018-06-10T05:11:26.101Z,24.8
2018-06-10T05:21:26.668Z,26.6
2018-06-10T05:31:27.869Z,27.3
2018-06-10T05:41:26.429Z,30.5
2018-06-10T05:51:27.496Z,23.2
2018-06-10T06:01:26.587Z,31.4
2018-06-10T06:11:26.417Z,23.4
2018-06-10T06:21:26.714Z,26.6
2018-06-10T06:31:26.657Z,23.3
2018-06-10T06:41:25.717Z,26.8
2018-06-10T06:51:26.107Z,25.9
2018-06-10T07:01:25.765Z,22.1
2018-06-10T07:11:25.699Z,20.5
2018-06-10T07:21:26.741Z,23.8
2018-06-10T07:31:25.880Z,29.6
2018-06-10T07:41:26.411Z,22.1
2018-06-10T07:51:26.284Z,27.2
2018-06-10T08:01:27.522Z,36.2
2018-06-10T08:11:26.704Z,34.8
2018-06-10T08:21:26.077Z,30.4
2018-06-10T08:31:25.889Z,34.1
2018-06-10T08:41:26.010Z,43.8
2018-06-10T08:51:26.069Z,33.3
2018-06-10T09:01:25.900Z,39.7
2018-06-10T09:11:26.025Z,37.3
2018-06-10T09:21:27.501Z,39.6
2018-06-10T09:31:26.512Z,41.2
2018-06-10T09:41:26.588Z,53.0
2018-06-10T09:51:26.517Z,55.4
2018-06-10T10:01:26.667Z,43.9
2018-06-10T10:11:26.445Z,42.5
2018-06-10T10:21:25.578Z,38.0
2018-06-10T10:31:28.110Z,37.7
2018-06-10T10:41:26.734Z,33.2
2018-06-10T10:51:26.328Z,16.8
2018-06-10T11:01:26.280Z,15.5
2018-06-10T11:11:26.666Z,14.9
2018-06-10T11:21:26.615Z,16.9
2018-06-10T11:31:26.890Z,13.5
2018-06-10T11:41:27.268Z,24.9
2018-06-10T11:51:26.240Z,15.2
2018-06-10T12:01:26.500Z,17.6
2018-06-10T12:11:27.257Z,8.8
2018-06-10T12:21:28.380Z,9.6
2018-06-10T12:31:26.585Z,12.6
2018-06-10T12:41:28.321Z,9.3
2018-06-10T12:51:26.697Z,10.4
2018-06-10T13:01:25.950Z,9.0
2018-06-10T13:11:26.228Z,7.6
2018-06-10T13:21:26.384Z,10.9
2018-06-10T13:31:26.502Z,26.6
2018-06-10T13:41:26.568Z,10.3
2018-06-10T13:51:27.333Z,8.4
2018-06-10T14:01:26.809Z,20.0
2018-06-10T14:11:27.386Z,9.5
2018-06-10T14:21:27.683Z,17.0
2018-06-10T14:31:25.580Z,15.6
2018-06-10T14:41:26.758Z,10.6
2018-06-10T14:51:26.663Z,6.1
2018-06-10T15:01:26.742Z,9.8
2018-06-10T15:11:25.653Z,10.0
2018-06-10T15:21:31.280Z,7.4
2018-06-10T15:31:26.731Z,13.0
2018-06-10T15:41:25.920Z,8.2
2018-06-10T15:51:26.050Z,11.2
2018-06-10T16:01:26.300Z,7.2
2018-06-10T16:11:26.827Z,9.1
2018-06-10T16:21:26.204Z,10.2
2018-06-10T16:31:27.221Z,7.2
2018-06-10T16:41:26.708Z,7.0
2018-06-10T16:51:25.979Z,9.0
2018-06-10T17:01:28.709Z,10.1
2018-06-10T17:11:26.283Z,8.9
2018-06-10T17:21:26.530Z,11.0
2018-06-10T17:31:27.093Z,15.9
2018-06-10T17:41:26.519Z,14.0
2018-06-10T17:51:27.797Z,10.2
2018-06-10T18:01:25.873Z,13.3
2018-06-10T18:11:25.876Z,15.5
2018-06-10T18:21:26.097Z,9.4
2018-06-10T18:31:26.065Z,8.9
2018-06-10T18:41:26.445Z,11.6
2018-06-10T18:51:25.500Z,8.2
2018-06-10T19:01:26.467Z,10.3
2018-06-10T19:11:26.692Z,10.1
2018-06-10T19:21:26.626Z,12.4
2018-06-10T19:31:25.596Z,13.6
2018-06-10T19:41:27.395Z,13.3
2018-06-10T19:51:26.393Z,18.9
2018-06-10T20:01:27.371Z,18.3
2018-06-10T20:11:26.550Z,10.3
2018-06-10T20:21:26.130Z,15.6
2018-06-10T20:31:26.636Z,10.5
2018-06-10T20:41:25.542Z,12.3
2018-06-10T20:51:26.882Z,13.9
2018-06-10T21:01:25.911Z,12.4
2018-06-10T21:11:37.507Z,11.5
2018-06-10T21:21:27.632Z,7.9
2018-06-10T21:31:28.141Z,7.1
2018-06-10T21:41:26.605Z,9.4
2018-06-10T21:51:27.636Z,10.5
2018-06-10T22:01:29.391Z,14.3
2018-06-10T22:11:32.951Z,18.0
2018-06-10T22:21:26.403Z,18.0
2018-06-10T22:31:26.476Z,13.0
2018-06-10T22:41:26.769Z,16.0
2018-06-10T22:51:26.527Z,12.1
2018-06-10T23:01:26.827Z,9.7
2018-06-10T23:11:25.949Z,14.5
2018-06-10T23:21:26.616Z,11.5
2018-06-10T23:31:26.460Z,19.6
2018-06-10T23:41:26.351Z,10.9
2018-06-10T23:51:27.864Z,13.7
